Latest Weather Observations for Hartz Mountains

IDT60801

Issued at 10:01 am EDT Monday 22 December 2014 (issued every 30 minutes, with the page automatically refreshed every 10 minutes)

About weather observations | Map of weather stations | Latest weather observations for TAS | Other Formats
Station Details ID: 094191 Name: HARTZ MOUNTAIN (KEOGHS PIMPLE) Lat: -43.20 Lon: 146.77 Height: 831.0 m
Data from the previous 72 hours. | See also: Recent months at Hartz Mountains
Date/Time
EDT
Temp
°C
App
Temp
°C
Dew
Point
Rel
Hum
%
Delta-T
°C
Wind Press
QNH
hPa
Press
MSL
hPa
Rain
since 9 am
mm
Dir
 
Spd
km/h
Gust
km/h
Spd
kts
Gust
kts
22/10:00am 13.6 11.5 9.6 77 2.1 NE 11 17 6 9 - - 0.0
22/09:30am 12.0 9.6 6.9 71 2.6 NNE 9 17 5 9 - - 0.0
22/09:00am 11.9 9.5 7.2 73 2.4 NNE 9 13 5 7 - - 0.2
22/08:30am 9.5 6.9 6.2 80 1.6 NNE 9 13 5 7 - - 0.2
22/08:00am 8.9 6.4 6.7 86 1.1 NNE 9 15 5 8 - - 0.2
22/07:30am 8.5 5.5 6.0 84 1.2 WNW 11 17 6 9 - - 0.2
22/07:00am 7.0 2.4 5.6 91 0.7 WNW 19 20 10 11 - - 0.2
22/06:30am 6.4 3.3 5.5 94 0.4 WNW 11 17 6 9 - - 0.2
22/06:00am 6.1 4.3 5.4 95 0.3 NW 4 9 2 5 - - 0.2
22/05:30am 5.9 3.2 5.5 97 0.2 WSW 9 11 5 6 - - 0.2
22/05:00am 5.8 3.0 5.2 96 0.3 N 9 17 5 9 - - 0.2
22/04:30am 6.1 0.9 5.5 96 0.3 W 22 32 12 17 - - 0.2
22/04:00am 6.3 0.0 5.7 96 0.3 W 28 37 15 20 - - 0.2
22/03:30am 6.7 0.8 6.0 95 0.3 W 26 39 14 21 - - 0.2
22/03:00am 6.6 1.9 5.9 95 0.3 WNW 20 33 11 18 - - 0.2
22/02:30am 6.9 1.8 6.2 95 0.3 W 22 35 12 19 - - 0.2
22/02:00am 7.3 2.9 6.6 95 0.3 WNW 19 33 10 18 - - 0.2
22/01:30am 7.4 2.5 6.8 96 0.3 W 22 32 12 17 - - 0.2
22/01:00am 7.5 3.0 6.9 96 0.3 W 20 33 11 18 - - 0.2
22/12:30am 7.7 2.8 7.1 96 0.3 WNW 22 33 12 18 - - 0.2
22/12:00am 7.8 2.6 7.2 96 0.3 W 24 44 13 24 - - 0.2
 
Date/Time
EDT
Temp
°C
App
Temp
°C
Dew
Point
Rel
Hum
%
Delta-T
°C
Wind Press
QNH
hPa
Press
MSL
hPa
Rain
since 9 am
mm
Dir
 
Spd
km/h
Gust
km/h
Spd
kts
Gust
kts
21/11:30pm 7.8 2.6 7.2 96 0.3 W 24 41 13 22 - - 0.2
21/11:00pm 7.7 2.8 7.0 95 0.3 W 22 35 12 19 - - 0.2
21/10:30pm 7.8 0.9 7.1 95 0.3 W 33 48 18 26 - - 0.0
21/10:04pm 7.9 2.3 7.1 95 0.4 WNW 26 54 14 29 - - 0.0
21/10:00pm 7.9 3.0 7.1 95 0.4 W 22 35 12 19 - - 0.0
21/09:30pm 8.1 2.9 7.3 95 0.4 W 24 37 13 20 - - 0.0
21/09:00pm 8.3 1.7 7.7 96 0.3 W 32 50 17 27 - - 0.0
21/08:36pm 9.0 2.9 8.4 96 0.3 W 30 50 16 27 - - 0.0
21/08:30pm 9.1 3.8 8.5 96 0.3 W 26 43 14 23 - - 0.0
21/08:26pm 9.4 4.6 8.8 96 0.3 W 24 43 13 23 - - 0.0
21/08:00pm 9.9 1.3 9.0 94 0.5 WNW 44 69 24 37 - - 0.0
21/07:30pm 10.2 0.8 8.8 91 0.7 W 48 69 26 37 - - 0.0
21/07:00pm 11.1 1.8 9.0 87 1.1 W 48 72 26 39 - - 0.0
21/06:35pm 11.5 3.4 8.5 82 1.6 W 41 59 22 32 - - 0.0
21/06:30pm 11.5 2.4 8.5 82 1.6 W 46 63 25 34 - - 0.0
21/06:00pm 12.2 4.0 8.3 77 2.0 W 41 63 22 34 - - 0.0
21/05:30pm 12.3 4.5 8.4 77 2.0 W 39 63 21 34 - - 0.0
21/05:19pm 12.5 6.0 8.0 74 2.3 W 32 57 17 31 - - 0.0
21/05:00pm 12.9 7.2 8.2 73 2.4 W 28 41 15 22 - - 0.0
21/04:30pm 13.7 8.0 8.3 70 2.8 W 28 50 15 27 - - 0.0
21/04:00pm 12.5 6.0 9.1 80 1.8 W 33 56 18 30 - - 0.0
21/03:30pm 14.0 7.1 9.0 72 2.7 W 35 57 19 31 - - 0.0
21/03:13pm 15.1 9.6 9.0 67 3.3 W 28 46 15 25 - - 0.0
21/03:00pm 15.5 10.0 9.2 66 3.4 W 28 43 15 23 - - 0.0
21/02:47pm 15.8 11.3 9.9 68 3.2 W 24 50 13 27 - - 0.0
21/02:30pm 16.6 11.9 9.3 62 4.0 WNW 24 43 13 23 - - 0.0
21/02:00pm 15.4 11.2 8.2 62 3.8 W 20 32 11 17 - - 0.0
21/01:30pm 15.3 11.9 9.2 67 3.3 WNW 17 28 9 15 - - 0.0
21/01:00pm 15.1 10.5 8.1 63 3.7 WNW 22 33 12 18 - - 0.0
21/12:30pm 15.9 11.5 9.1 64 3.7 WNW 22 32 12 17 - - 0.0
21/12:00pm 14.8 10.4 7.4 61 3.8 WNW 20 30 11 16 - - 0.0
21/11:30am 13.7 10.3 9.0 73 2.5 W 17 28 9 15 - - 0.0
21/11:00am 12.3 7.3 6.4 67 2.9 WNW 22 35 12 19 - - 0.0
21/10:30am 12.3 6.6 6.6 68 2.8 WNW 26 35 14 19 - - 0.0
21/10:00am 11.4 7.3 6.3 71 2.5 WNW 17 24 9 13 - - 0.0
21/09:30am 9.8 5.0 5.8 76 1.9 W 20 28 11 15 - - 0.0
21/09:00am 9.2 5.0 5.6 78 1.7 W 17 24 9 13 - - 0.2
21/08:30am 7.9 3.0 5.0 82 1.4 WNW 20 30 11 16 - - 0.2
21/08:00am 7.4 2.8 5.4 87 0.9 NW 19 26 10 14 - - 0.2
21/07:30am 6.9 2.1 4.9 87 0.9 NNW 19 24 10 13 - - 0.2
21/07:00am 6.3 2.3 4.9 91 0.6 NW 15 20 8 11 - - 0.2
21/06:30am 5.4 2.0 4.2 92 0.5 NW 11 15 6 8 - - 0.2
21/06:00am 5.0 0.5 4.1 94 0.4 WNW 17 26 9 14 - - 0.2
21/05:30am 4.8 -1.0 4.4 97 0.2 W 24 32 13 17 - - 0.2
21/05:00am 4.5 -0.6 4.1 97 0.2 NW 20 26 11 14 - - 0.2
21/04:30am 4.5 -0.4 4.1 97 0.2 NW 19 22 10 12 - - 0.2
21/04:00am 4.4 0.6 3.8 96 0.3 NNW 13 17 7 9 - - 0.2
21/03:30am 4.8 0.7 4.1 95 0.3 NNW 15 17 8 9 - - 0.0
21/03:00am 4.6 0.0 3.7 94 0.4 NW 17 19 9 10 - - 0.0
21/02:30am 4.9 -0.2 4.0 94 0.4 NW 20 24 11 13 - - 0.0
21/02:00am 4.9 -0.1 3.7 92 0.5 NW 19 20 10 11 - - 0.0
21/01:30am 5.1 0.1 3.4 89 0.7 WNW 19 24 10 13 - - 0.0
21/01:00am 5.6 0.0 3.6 87 0.9 W 22 28 12 15 - - 0.0
21/12:30am 5.7 -0.6 3.7 87 0.9 WNW 26 32 14 17 - - 0.0
21/12:00am 5.6 -1.1 3.8 88 0.8 W 28 35 15 19 - - 0.0
 
Date/Time
EDT
Temp
°C
App
Temp
°C
Dew
Point
Rel
Hum
%
Delta-T
°C
Wind Press
QNH
hPa
Press
MSL
hPa
Rain
since 9 am
mm
Dir
 
Spd
km/h
Gust
km/h
Spd
kts
Gust
kts
20/11:30pm 5.6 1.4 3.8 88 0.8 WNW 15 20 8 11 - - 0.0
20/11:00pm 5.6 1.4 3.8 88 0.8 W 15 20 8 11 - - 0.0
20/10:30pm 6.0 2.9 3.7 85 1.0 W 9 15 5 8 - - 0.0
20/10:00pm 5.9 3.2 3.6 85 1.0 W 7 13 4 7 - - 0.0
20/09:30pm 6.2 1.3 3.9 85 1.0 WSW 19 26 10 14 - - 0.0
20/09:00pm 6.7 1.5 3.7 81 1.3 WSW 20 32 11 17 - - 0.0
20/08:30pm 7.6 2.5 4.2 79 1.6 W 20 28 11 15 - - 0.0
20/08:00pm 7.9 2.5 4.5 79 1.6 WSW 22 33 12 18 - - 0.0
20/07:30pm 8.6 2.6 5.4 80 1.5 WSW 26 35 14 19 - - 0.0
20/07:00pm 8.9 1.5 5.1 77 1.8 WSW 33 43 18 23 - - 0.0
20/06:30pm 10.8 6.3 6.0 72 2.3 WSW 19 35 10 19 - - 0.0
20/06:00pm 10.9 4.0 4.6 65 3.0 WSW 30 48 16 26 - - 0.0
20/05:30pm 10.5 2.8 5.3 70 2.5 W 35 54 19 29 - - 0.0
20/05:00pm 10.1 2.4 5.5 73 2.2 W 35 56 19 30 - - 0.0
20/04:30pm 10.9 4.1 5.2 68 2.7 W 30 48 16 26 - - 0.0
20/04:00pm 12.0 4.1 4.5 60 3.6 W 35 54 19 29 - - 0.0
20/03:41pm 10.8 3.7 6.4 74 2.2 WSW 33 52 18 28 - - 0.0
20/03:30pm 10.3 2.1 4.5 67 2.7 WSW 37 50 20 27 - - 0.0
20/03:04pm 10.7 2.8 4.4 65 3.0 WSW 35 54 19 29 - - 0.0
20/03:00pm 11.2 3.6 5.7 69 2.7 WSW 35 50 19 27 - - 0.0
20/02:40pm 12.0 5.2 6.9 71 2.6 WSW 32 50 17 27 - - 0.0
20/02:30pm 10.6 3.0 5.8 72 2.3 WSW 35 48 19 26 - - 0.0
20/02:09pm 10.7 4.5 4.4 65 3.0 W 26 57 14 31 - - 0.0
20/02:00pm 11.7 4.4 8.6 81 1.6 WSW 37 54 20 29 - - 0.0
20/01:30pm 10.3 4.9 6.5 77 1.9 W 24 39 13 21 - - 0.0
20/01:00pm 9.8 4.3 6.0 77 1.8 WSW 24 46 13 25 - - 0.0
20/12:41pm 10.3 4.1 6.1 75 2.0 W 28 52 15 28 - - 0.0
20/12:30pm 10.7 6.4 7.9 83 1.4 WSW 20 37 11 20 - - 0.0
20/12:00pm 9.1 3.7 6.4 83 1.3 W 24 48 13 26 - - 0.0
20/11:30am 8.9 3.3 7.0 88 0.9 W 26 46 14 25 - - 0.0
20/11:08am 8.2 2.1 6.7 90 0.7 W 28 56 15 30 - - 0.0
20/11:00am 8.0 2.7 6.6 91 0.7 W 24 46 13 25 - - 0.0
20/10:30am 8.5 4.6 7.1 91 0.7 W 17 28 9 15 - - 0.0
20/10:00am 8.3 2.6 6.6 89 0.8 W 26 46 14 25 - - 0.0
20/09:30am 8.3 0.8 6.1 86 1.1 W 35 57 19 31 - - 0.0
20/09:02am 8.5 1.0 6.5 87 1.0 WSW 35 54 19 29 - - 0.0
20/09:00am 8.6 0.8 6.7 88 0.9 WSW 37 54 20 29 - - 2.0
20/08:42am 8.6 -0.4 6.6 87 1.0 WSW 43 61 23 33 - - 2.0
20/08:30am 8.2 0.0 6.7 90 0.7 WSW 39 54 21 29 - - 2.0
20/08:10am 8.0 1.0 6.9 93 0.5 WSW 33 59 18 32 - - 2.0
20/08:00am 8.3 1.5 7.5 95 0.4 W 33 48 18 26 - - 2.0
20/07:39am 7.9 0.2 7.3 96 0.3 W 37 56 20 30 - - 2.0
20/07:30am 7.8 0.5 7.2 96 0.3 W 35 52 19 28 - - 2.0
20/07:01am 8.2 1.1 7.9 98 0.1 WSW 35 54 19 29 - - 2.0
20/07:00am 8.2 1.1 7.9 98 0.1 WSW 35 50 19 27 - - 2.0
20/06:30am 8.1 1.9 7.8 98 0.1 W 30 48 16 26 - - 1.2
20/06:01am 7.9 1.6 7.6 98 0.1 WNW 30 48 16 26 - - 1.0
20/06:00am 7.9 1.3 7.6 98 0.1 WNW 32 48 17 26 - - 1.0
20/05:30am 7.8 0.2 7.5 98 0.1 WNW 37 57 20 31 - - 1.0
20/05:03am 7.6 -0.1 7.3 98 0.1 W 37 56 20 30 - - 1.0
20/05:00am 7.6 -0.4 7.3 98 0.1 W 39 56 21 30 - - 1.0
20/04:30am 7.5 -0.6 7.2 98 0.1 W 39 57 21 31 - - 0.8
20/04:01am 7.3 -0.8 7.0 98 0.1 W 39 57 21 31 - - 0.8
20/04:00am 7.3 -1.2 7.0 98 0.1 W 41 57 22 31 - - 0.8
20/03:30am 7.1 -0.7 6.8 98 0.1 WNW 37 57 20 31 - - 0.8
20/03:00am 6.8 -2.4 6.5 98 0.1 WNW 44 63 24 34 - - 0.6
20/02:30am 6.6 -2.4 6.2 97 0.2 W 43 61 23 33 - - 0.6
20/02:01am 6.4 -1.9 6.0 97 0.2 W 39 65 21 35 - - 0.6
20/02:00am 6.3 -2.0 5.9 97 0.2 W 39 54 21 29 - - 0.6
20/01:32am 6.2 -3.9 5.9 98 0.1 W 48 67 26 36 - - 0.6
20/01:30am 6.2 -3.9 5.9 98 0.1 W 48 65 26 35 - - 0.6
20/01:00am 5.8 -1.9 5.5 98 0.1 WNW 35 54 19 29 - - 0.6
20/12:58am 5.8 -1.9 5.5 98 0.1 WNW 35 54 19 29 - - 0.6
20/12:30am 5.7 -1.6 5.3 97 0.2 WNW 33 46 18 25 - - 0.6
20/12:00am 5.5 -2.6 5.1 97 0.2 WNW 37 50 20 27 - - 0.6
 
Date/Time
EDT
Temp
°C
App
Temp
°C
Dew
Point
Rel
Hum
%
Delta-T
°C
Wind Press
QNH
hPa
Press
MSL
hPa
Rain
since 9 am
mm
Dir
 
Spd
km/h
Gust
km/h
Spd
kts
Gust
kts
19/11:33pm 5.4 -1.0 5.0 97 0.2 WNW 28 50 15 27 - - 0.6
19/11:30pm 5.4 -0.7 5.0 97 0.2 WNW 26 43 14 23 - - 0.6
19/11:00pm 5.2 -1.0 4.5 95 0.3 NW 26 35 14 19 - - 0.6
19/10:30pm 5.2 -1.4 4.2 93 0.4 NW 28 41 15 22 - - 0.6
19/10:00pm 5.2 -1.1 4.0 92 0.5 NW 26 43 14 23 - - 0.6
19/09:30pm 5.3 -1.3 4.1 92 0.5 NW 28 39 15 21 - - 0.6
19/09:00pm 5.4 -1.6 4.1 91 0.6 WNW 30 44 16 24 - - 0.6
19/08:33pm 5.5 -1.2 3.8 89 0.8 WNW 28 46 15 25 - - 0.6
19/08:30pm 5.5 -0.8 3.8 89 0.8 WNW 26 43 14 23 - - 0.6
19/08:00pm 5.6 -0.7 3.8 88 0.8 WNW 26 41 14 22 - - 0.6
19/07:30pm 5.8 -1.9 3.3 84 1.1 W 33 54 18 29 - - 0.6
19/07:16pm 6.1 -2.9 2.7 79 1.5 WNW 39 61 21 33 - - 0.6
19/07:00pm 6.6 -1.5 3.2 79 1.5 W 35 50 19 27 - - 0.6
19/06:46pm 6.7 -0.8 3.3 79 1.5 W 32 50 17 27 - - 0.6
19/06:30pm 7.0 -0.7 3.3 77 1.6 W 33 46 18 25 - - 0.6
19/06:12pm 7.3 -1.2 3.4 76 1.7 W 37 56 20 30 - - 0.6
19/06:00pm 7.3 -1.5 3.4 76 1.7 W 39 52 21 28 - - 0.6
19/05:30pm 7.7 0.0 3.2 73 2.0 W 33 57 18 31 - - 0.6
19/05:00pm 6.9 0.0 4.4 84 1.1 W 30 52 16 28 - - 0.6
19/04:53pm 7.6 0.9 3.6 76 1.8 W 28 46 15 25 - - 0.6
19/04:30pm 8.5 1.5 2.1 64 2.8 W 28 44 15 24 - - 0.6
19/04:03pm 8.0 1.2 2.9 70 2.3 WSW 28 54 15 29 - - 0.6
19/04:00pm 8.0 1.6 3.1 71 2.2 W 26 46 14 25 - - 0.6
19/03:34pm 9.7 3.0 1.6 57 3.5 WNW 26 48 14 26 - - 0.6
19/03:30pm 9.9 2.7 1.0 54 3.9 WNW 28 50 15 27 - - 0.6
19/03:07pm 10.1 3.5 4.0 66 2.8 WSW 28 46 15 25 - - 0.6
19/03:00pm 8.6 1.8 0.8 58 3.3 WSW 26 46 14 25 - - 0.6
19/02:32pm 9.5 2.9 4.3 70 2.4 W 28 46 15 25 - - 0.6
19/02:30pm 9.5 3.6 3.9 68 2.6 W 24 46 13 25 - - 0.6
19/02:00pm 9.8 3.3 4.6 70 2.4 WNW 28 50 15 27 - - 0.6
19/01:30pm 9.9 3.2 3.4 64 3.0 WNW 28 46 15 25 - - 0.6
19/01:00pm 9.8 3.0 5.2 73 2.2 WNW 30 52 16 28 - - 0.6
19/12:33pm 7.2 -0.3 4.3 82 1.3 WSW 33 52 18 28 - - 0.6
19/12:30pm 6.9 -1.3 2.8 75 1.8 WSW 35 46 19 25 - - 0.6
19/12:15pm 7.2 0.6 4.0 80 1.4 W 28 52 15 28 - - 0.6
19/12:00pm 7.5 2.6 5.3 86 1.0 W 20 32 11 17 - - 0.6
19/11:30am 5.2 -0.3 4.0 92 0.5 WSW 22 35 12 19 - - 0.6
19/11:07am 4.7 -2.4 3.7 93 0.4 WSW 30 48 16 26 - - 0.6
19/11:00am 4.7 -2.8 3.7 93 0.4 WSW 32 48 17 26 - - 0.4
19/10:56am 4.7 -2.0 3.7 93 0.4 W 28 48 15 26 - - 0.4
19/10:30am 5.7 -1.8 4.5 92 0.5 WSW 33 46 18 25 - - 0.4

Other Formats:

Comma delimited format used in spreadsheet applications
http://www.bom.gov.au/fwo/IDT60801/IDT60801.94977.axf

JavaScript Object Notation format (JSON) in row-major order
http://www.bom.gov.au/fwo/IDT60801/IDT60801.94977.json